West Lowville, New York
Current Conditions -  °F | °C
As of 7:58 AM on Wednesday 22 Oct 2014 (Local Time) from KGTB Reporting Station
Overcast Overcast  
Wind Chill: 35°   Ceiling: 1100
Heat Index: 42°   Visibility: 10mi
Dew Point: 38°   Wind: 14mph
Humidity: 87%   Direction: 40°NE
Pressure: 30.17"   Gusts: NA
Location:  43.7565°N, 75.5938°W
Report Text: KGTB 221158Z AUTO 04012KT 10SM OVC011 06/04 A3017 RMK AO2 SLP222 70002 T00560036 10059 20056 52018
Loading
Personal Weather Stations






























Interactive Weather Map
Tropical Storm Tracking
New forecast layout! Learn more

10-Day Weather Forecast

Advertisements
Track Severe Weather on mobile